sensor_id;sensor_type;location;lat;lon;timestamp;P1;durP1;ratioP1;P2;durP2;ratioP2
77870;SDS011;67067;46.850;7.578;2023-05-14T08:33:27;8.97;;;6.50;;
77870;SDS011;67067;46.850;7.578;2023-05-14T08:34:31;14.02;;;7.63;;
77870;SDS011;67067;46.850;7.578;2023-05-14T08:36:34;8.60;;;6.75;;
77870;SDS011;67067;46.850;7.578;2023-05-14T08:38:37;9.18;;;7.05;;
77870;SDS011;67067;46.850;7.578;2023-05-14T08:39:41;9.10;;;6.68;;
77870;SDS011;67067;46.850;7.578;2023-05-14T08:40:46;12.93;;;6.97;;
77870;SDS011;67067;46.850;7.578;2023-05-14T08:41:51;11.30;;;7.00;;
77870;SDS011;67067;46.850;7.578;2023-05-14T08:42:54;8.20;;;6.40;;
77870;SDS011;67067;46.850;7.578;2023-05-14T08:44:04;10.70;;;6.45;;
77870;SDS011;67067;46.850;7.578;2023-05-14T08:45:12;7.07;;;5.93;;
77870;SDS011;67067;46.850;7.578;2023-05-14T08:46:21;9.40;;;6.80;;
77870;SDS011;67067;46.850;7.578;2023-05-14T08:47:24;10.95;;;6.60;;
77870;SDS011;67067;46.850;7.578;2023-05-14T08:48:28;12.00;;;7.60;;
77870;SDS011;67067;46.850;7.578;2023-05-14T08:49:40;8.80;;;6.45;;
77870;SDS011;67067;46.850;7.578;2023-05-14T08:50:43;10.52;;;6.75;;
77870;SDS011;67067;46.850;7.578;2023-05-14T08:51:44;7.70;;;6.28;;
77870;SDS011;67067;46.850;7.578;2023-05-14T08:52:49;10.82;;;6.82;;
77870;SDS011;67067;46.850;7.578;2023-05-14T08:53:55;10.85;;;7.10;;
77870;SDS011;67067;46.850;7.578;2023-05-14T08:55:03;11.10;;;7.07;;
77870;SDS011;67067;46.850;7.578;2023-05-14T08:56:05;8.75;;;5.97;;
77870;SDS011;67067;46.850;7.578;2023-05-14T08:57:10;11.35;;;6.53;;
77870;SDS011;67067;46.850;7.578;2023-05-14T08:58:16;9.40;;;6.60;;
77870;SDS011;67067;46.850;7.578;2023-05-14T08:59:18;10.23;;;6.47;;
77870;SDS011;67067;46.850;7.578;2023-05-14T09:00:20;7.10;;;5.90;;
77870;SDS011;67067;46.850;7.578;2023-05-14T09:01:24;10.35;;;6.60;;
77870;SDS011;67067;46.850;7.578;2023-05-14T09:02:29;9.52;;;6.93;;
77870;SDS011;67067;46.850;7.578;2023-05-14T09:03:34;9.32;;;6.50;;
77870;SDS011;67067;46.850;7.578;2023-05-14T09:04:37;12.25;;;6.68;;
77870;SDS011;67067;46.850;7.578;2023-05-14T09:05:39;8.57;;;6.47;;
77870;SDS011;67067;46.850;7.578;2023-05-14T09:06:41;9.82;;;6.88;;
77870;SDS011;67067;46.850;7.578;2023-05-14T09:07:46;9.15;;;6.65;;
77870;SDS011;67067;46.850;7.578;2023-05-14T09:08:48;11.00;;;6.88;;
77870;SDS011;67067;46.850;7.578;2023-05-14T09:09:50;8.43;;;6.25;;
77870;SDS011;67067;46.850;7.578;2023-05-14T09:10:55;8.40;;;6.35;;
77870;SDS011;67067;46.850;7.578;2023-05-14T09:11:59;6.95;;;5.43;;
77870;SDS011;67067;46.850;7.578;2023-05-14T09:13:01;7.07;;;5.75;;
77870;SDS011;67067;46.850;7.578;2023-05-14T09:14:04;8.23;;;5.97;;
77870;SDS011;67067;46.850;7.578;2023-05-14T09:15:05;8.77;;;6.35;;
77870;SDS011;67067;46.850;7.578;2023-05-14T09:16:07;8.43;;;6.50;;
77870;SDS011;67067;46.850;7.578;2023-05-14T09:18:12;7.43;;;5.75;;
77870;SDS011;67067;46.850;7.578;2023-05-14T09:20:19;9.95;;;6.25;;
77870;SDS011;67067;46.850;7.578;2023-05-14T09:21:21;8.55;;;5.97;;
77870;SDS011;67067;46.850;7.578;2023-05-14T09:22:23;7.75;;;6.07;;
77870;SDS011;67067;46.850;7.578;2023-05-14T09:24:27;11.57;;;6.20;;
77870;SDS011;67067;46.850;7.578;2023-05-14T09:25:31;9.30;;;6.18;;
77870;SDS011;67067;46.850;7.578;2023-05-14T09:26:34;8.05;;;6.15;;
77870;SDS011;67067;46.850;7.578;2023-05-14T09:27:35;6.93;;;5.88;;
77870;SDS011;67067;46.850;7.578;2023-05-14T09:28:38;9.93;;;6.22;;
77870;SDS011;67067;46.850;7.578;2023-05-14T09:29:43;8.73;;;6.95;;
77870;SDS011;67067;46.850;7.578;2023-05-14T09:30:50;7.60;;;6.28;;
77870;SDS011;67067;46.850;7.578;2023-05-14T09:31:54;9.00;;;6.63;;
77870;SDS011;67067;46.850;7.578;2023-05-14T09:32:57;10.35;;;6.15;;
77870;SDS011;67067;46.850;7.578;2023-05-14T09:35:08;8.57;;;6.35;;
77870;SDS011;67067;46.850;7.578;2023-05-14T09:36:12;10.32;;;6.43;;
77870;SDS011;67067;46.850;7.578;2023-05-14T09:37:14;8.77;;;6.22;;
77870;SDS011;67067;46.850;7.578;2023-05-14T09:38:16;8.02;;;5.80;;
77870;SDS011;67067;46.850;7.578;2023-05-14T09:40:20;7.88;;;6.28;;
77870;SDS011;67067;46.850;7.578;2023-05-14T09:41:25;8.32;;;6.05;;
77870;SDS011;67067;46.850;7.578;2023-05-14T09:43:29;8.98;;;6.40;;
77870;SDS011;67067;46.850;7.578;2023-05-14T09:44:30;9.95;;;6.85;;
77870;SDS011;67067;46.850;7.578;2023-05-14T09:45:33;9.43;;;6.63;;
77870;SDS011;67067;46.850;7.578;2023-05-14T09:46:35;9.20;;;6.35;;
77870;SDS011;67067;46.850;7.578;2023-05-14T09:47:42;10.10;;;7.00;;
77870;SDS011;67067;46.850;7.578;2023-05-14T09:48:45;9.00;;;6.03;;
77870;SDS011;67067;46.850;7.578;2023-05-14T09:50:49;11.43;;;6.80;;
77870;SDS011;67067;46.850;7.578;2023-05-14T09:51:51;9.48;;;6.25;;
77870;SDS011;67067;46.850;7.578;2023-05-14T09:53:58;9.85;;;6.55;;
77870;SDS011;67067;46.850;7.578;2023-05-14T09:55:00;8.82;;;6.40;;
77870;SDS011;67067;46.850;7.578;2023-05-14T09:56:02;8.25;;;6.25;;
77870;SDS011;67067;46.850;7.578;2023-05-14T09:57:04;9.48;;;6.20;;
77870;SDS011;67067;46.850;7.578;2023-05-14T09:59:10;7.95;;;6.20;;
77870;SDS011;67067;46.850;7.578;2023-05-14T10:00:13;8.30;;;6.22;;
77870;SDS011;67067;46.850;7.578;2023-05-14T10:01:17;7.38;;;5.90;;
77870;SDS011;67067;46.850;7.578;2023-05-14T10:02:24;10.32;;;6.78;;
77870;SDS011;67067;46.850;7.578;2023-05-14T10:03:28;8.30;;;6.72;;
77870;SDS011;67067;46.850;7.578;2023-05-14T10:04:31;8.57;;;6.60;;
77870;SDS011;67067;46.850;7.578;2023-05-14T10:05:34;10.07;;;6.07;;
77870;SDS011;67067;46.850;7.578;2023-05-14T10:06:38;9.38;;;6.72;;
77870;SDS011;67067;46.850;7.578;2023-05-14T10:07:43;7.90;;;6.20;;
77870;SDS011;67067;46.850;7.578;2023-05-14T10:08:51;8.95;;;6.25;;
77870;SDS011;67067;46.850;7.578;2023-05-14T10:09:56;8.30;;;6.30;;
77870;SDS011;67067;46.850;7.578;2023-05-14T10:11:02;8.10;;;6.60;;
77870;SDS011;67067;46.850;7.578;2023-05-14T10:12:10;8.48;;;6.35;;
77870;SDS011;67067;46.850;7.578;2023-05-14T10:13:18;9.05;;;6.40;;
77870;SDS011;67067;46.850;7.578;2023-05-14T10:14:44;8.57;;;6.32;;
77870;SDS011;67067;46.850;7.578;2023-05-14T10:15:59;8.60;;;6.45;;
77870;SDS011;67067;46.850;7.578;2023-05-14T10:17:08;10.27;;;6.72;;
77870;SDS011;67067;46.850;7.578;2023-05-14T10:18:19;8.05;;;6.50;;
77870;SDS011;67067;46.850;7.578;2023-05-14T10:19:25;7.32;;;6.30;;
77870;SDS011;67067;46.850;7.578;2023-05-14T10:20:33;7.97;;;6.05;;
77870;SDS011;67067;46.850;7.578;2023-05-14T10:21:37;8.07;;;6.20;;
77870;SDS011;67067;46.850;7.578;2023-05-14T10:22:41;10.73;;;6.30;;
77870;SDS011;67067;46.850;7.578;2023-05-14T10:23:43;8.18;;;6.60;;
77870;SDS011;67067;46.850;7.578;2023-05-14T10:24:47;9.05;;;6.63;;
77870;SDS011;67067;46.850;7.578;2023-05-14T10:25:52;8.50;;;6.60;;
77870;SDS011;67067;46.850;7.578;2023-05-14T10:26:54;7.65;;;6.45;;
77870;SDS011;67067;46.850;7.578;2023-05-14T10:27:56;8.30;;;6.47;;
77870;SDS011;67067;46.850;7.578;2023-05-14T10:28:58;9.68;;;6.68;;
77870;SDS011;67067;46.850;7.578;2023-05-14T10:30:03;10.43;;;7.40;;
77870;SDS011;67067;46.850;7.578;2023-05-14T10:31:10;9.20;;;6.60;;
77870;SDS011;67067;46.850;7.578;2023-05-14T10:32:13;7.97;;;6.13;;
77870;SDS011;67067;46.850;7.578;2023-05-14T10:33:16;11.23;;;6.88;;
77870;SDS011;67067;46.850;7.578;2023-05-14T10:36:57;8.27;;;6.75;;
77870;SDS011;67067;46.850;7.578;2023-05-14T10:38:06;11.90;;;6.88;;
77870;SDS011;67067;46.850;7.578;2023-05-14T10:39:08;8.70;;;6.57;;
77870;SDS011;67067;46.850;7.578;2023-05-14T10:41:13;8.32;;;6.60;;
77870;SDS011;67067;46.850;7.578;2023-05-14T10:43:25;8.38;;;6.45;;
77870;SDS011;67067;46.850;7.578;2023-05-14T10:44:29;10.10;;;6.63;;
77870;SDS011;67067;46.850;7.578;2023-05-14T10:45:37;8.68;;;6.63;;
77870;SDS011;67067;46.850;7.578;2023-05-14T10:46:40;8.50;;;6.10;;
77870;SDS011;67067;46.850;7.578;2023-05-14T10:48:44;6.72;;;6.03;;
77870;SDS011;67067;46.850;7.578;2023-05-14T10:49:46;8.60;;;5.90;;
77870;SDS011;67067;46.850;7.578;2023-05-14T10:50:50;9.13;;;6.57;;
77870;SDS011;67067;46.850;7.578;2023-05-14T10:51:55;7.60;;;6.28;;
77870;SDS011;67067;46.850;7.578;2023-05-14T10:53:59;11.70;;;6.68;;
77870;SDS011;67067;46.850;7.578;2023-05-14T10:55:03;7.70;;;6.10;;
77870;SDS011;67067;46.850;7.578;2023-05-14T10:56:12;9.95;;;6.50;;
77870;SDS011;67067;46.850;7.578;2023-05-14T10:57:14;8.60;;;6.57;;
77870;SDS011;67067;46.850;7.578;2023-05-14T10:58:18;8.65;;;6.40;;
77870;SDS011;67067;46.850;7.578;2023-05-14T10:59:25;9.52;;;6.78;;
77870;SDS011;67067;46.850;7.578;2023-05-14T11:00:27;8.52;;;6.50;;
77870;SDS011;67067;46.850;7.578;2023-05-14T11:02:33;8.05;;;6.75;;
77870;SDS011;67067;46.850;7.578;2023-05-14T11:05:59;9.25;;;7.22;;
77870;SDS011;67067;46.850;7.578;2023-05-14T11:07:05;9.95;;;6.93;;
77870;SDS011;67067;46.850;7.578;2023-05-14T11:08:08;7.90;;;6.25;;
77870;SDS011;67067;46.850;7.578;2023-05-14T11:09:16;8.88;;;6.40;;
77870;SDS011;67067;46.850;7.578;2023-05-14T11:10:18;11.35;;;6.88;;
77870;SDS011;67067;46.850;7.578;2023-05-14T11:11:22;9.52;;;7.00;;
77870;SDS011;67067;46.850;7.578;2023-05-14T11:12:26;9.07;;;6.60;;
77870;SDS011;67067;46.850;7.578;2023-05-14T11:13:29;9.90;;;7.18;;
77870;SDS011;67067;46.850;7.578;2023-05-14T11:14:33;9.05;;;7.00;;
77870;SDS011;67067;46.850;7.578;2023-05-14T11:16:37;8.45;;;6.68;;
77870;SDS011;67067;46.850;7.578;2023-05-14T11:17:40;10.35;;;6.80;;
77870;SDS011;67067;46.850;7.578;2023-05-14T11:18:42;7.63;;;6.30;;
77870;SDS011;67067;46.850;7.578;2023-05-14T11:19:44;5.60;;;4.80;;
77870;SDS011;67067;46.850;7.578;2023-05-14T11:20:46;5.47;;;4.10;;
77870;SDS011;67067;46.850;7.578;2023-05-14T11:21:48;4.97;;;3.78;;
77870;SDS011;67067;46.850;7.578;2023-05-14T11:23:55;3.75;;;3.45;;
77870;SDS011;67067;46.850;7.578;2023-05-14T11:24:57;5.60;;;4.30;;
77870;SDS011;67067;46.850;7.578;2023-05-14T11:26:00;4.15;;;3.75;;
77870;SDS011;67067;46.850;7.578;2023-05-14T11:27:08;5.93;;;3.92;;
77870;SDS011;67067;46.850;7.578;2023-05-14T11:28:10;4.00;;;3.70;;
77870;SDS011;67067;46.850;7.578;2023-05-14T11:30:14;7.85;;;4.18;;
77870;SDS011;67067;46.850;7.578;2023-05-14T11:31:17;5.07;;;4.10;;
77870;SDS011;67067;46.850;7.578;2023-05-14T11:33:23;4.75;;;3.72;;
77870;SDS011;67067;46.850;7.578;2023-05-14T11:34:28;4.43;;;4.03;;
77870;SDS011;67067;46.850;7.578;2023-05-14T11:35:30;4.13;;;3.60;;
77870;SDS011;67067;46.850;7.578;2023-05-14T11:36:31;3.67;;;3.35;;
77870;SDS011;67067;46.850;7.578;2023-05-14T11:38:46;4.78;;;3.78;;
77870;SDS011;67067;46.850;7.578;2023-05-14T11:39:50;4.15;;;3.83;;
77870;SDS011;67067;46.850;7.578;2023-05-14T11:40:56;3.78;;;3.47;;
77870;SDS011;67067;46.850;7.578;2023-05-14T11:42:01;4.10;;;3.70;;
77870;SDS011;67067;46.850;7.578;2023-05-14T11:43:03;6.32;;;4.07;;
77870;SDS011;67067;46.850;7.578;2023-05-14T11:44:05;3.80;;;3.50;;
77870;SDS011;67067;46.850;7.578;2023-05-14T11:45:12;4.00;;;3.70;;
77870;SDS011;67067;46.850;7.578;2023-05-14T11:46:24;3.75;;;3.42;;
77870;SDS011;67067;46.850;7.578;2023-05-14T11:47:28;4.38;;;3.20;;
77870;SDS011;67067;46.850;7.578;2023-05-14T11:48:30;4.10;;;3.30;;
77870;SDS011;67067;46.850;7.578;2023-05-14T11:49:32;3.88;;;3.58;;
77870;SDS011;67067;46.850;7.578;2023-05-14T11:50:36;3.47;;;3.22;;
77870;SDS011;67067;46.850;7.578;2023-05-14T11:52:41;3.67;;;3.38;;
77870;SDS011;67067;46.850;7.578;2023-05-14T11:53:46;3.65;;;3.35;;
77870;SDS011;67067;46.850;7.578;2023-05-14T11:54:48;3.25;;;2.95;;
77870;SDS011;67067;46.850;7.578;2023-05-14T11:55:52;3.78;;;3.33;;
77870;SDS011;67067;46.850;7.578;2023-05-14T11:56:55;3.20;;;2.90;;
77870;SDS011;67067;46.850;7.578;2023-05-14T11:58:00;3.17;;;2.97;;
77870;SDS011;67067;46.850;7.578;2023-05-14T11:59:02;4.95;;;3.00;;
77870;SDS011;67067;46.850;7.578;2023-05-14T12:01:08;2.97;;;2.78;;
77870;SDS011;67067;46.850;7.578;2023-05-14T12:02:14;3.22;;;2.92;;
77870;SDS011;67067;46.850;7.578;2023-05-14T12:03:18;2.90;;;2.70;;
77870;SDS011;67067;46.850;7.578;2023-05-14T12:04:27;3.08;;;2.70;;
77870;SDS011;67067;46.850;7.578;2023-05-14T12:05:29;3.30;;;3.00;;
77870;SDS011;67067;46.850;7.578;2023-05-14T12:06:34;3.10;;;2.90;;
77870;SDS011;67067;46.850;7.578;2023-05-14T12:07:35;3.20;;;3.00;;
77870;SDS011;67067;46.850;7.578;2023-05-14T12:08:37;3.13;;;2.92;;
77870;SDS011;67067;46.850;7.578;2023-05-14T12:10:47;2.95;;;2.75;;
77870;SDS011;67067;46.850;7.578;2023-05-14T12:11:50;3.30;;;3.10;;
77870;SDS011;67067;46.850;7.578;2023-05-14T12:12:52;2.90;;;2.70;;
77870;SDS011;67067;46.850;7.578;2023-05-14T12:13:54;3.40;;;3.10;;
77870;SDS011;67067;46.850;7.578;2023-05-14T12:14:58;3.17;;;2.90;;
77870;SDS011;67067;46.850;7.578;2023-05-14T12:16:00;2.78;;;2.58;;
77870;SDS011;67067;46.850;7.578;2023-05-14T12:17:03;2.78;;;2.58;;
77870;SDS011;67067;46.850;7.578;2023-05-14T12:18:12;2.33;;;2.22;;
77870;SDS011;67067;46.850;7.578;2023-05-14T12:19:25;2.58;;;2.38;;
77870;SDS011;67067;46.850;7.578;2023-05-14T12:20:28;2.63;;;2.42;;
77870;SDS011;67067;46.850;7.578;2023-05-14T12:21:29;3.22;;;3.00;;
77870;SDS011;67067;46.850;7.578;2023-05-14T12:22:32;2.55;;;2.45;;
77870;SDS011;67067;46.850;7.578;2023-05-14T12:23:37;2.72;;;2.53;;
77870;SDS011;67067;46.850;7.578;2023-05-14T12:24:39;2.83;;;2.63;;
77870;SDS011;67067;46.850;7.578;2023-05-14T12:25:50;4.25;;;2.47;;
77870;SDS011;67067;46.850;7.578;2023-05-14T12:26:53;2.15;;;2.05;;
77870;SDS011;67067;46.850;7.578;2023-05-14T12:27:55;2.85;;;2.60;;
77870;SDS011;67067;46.850;7.578;2023-05-14T12:30:04;3.20;;;2.90;;
77870;SDS011;67067;46.850;7.578;2023-05-14T12:31:28;2.65;;;2.45;;
77870;SDS011;67067;46.850;7.578;2023-05-14T12:32:31;2.70;;;2.50;;
77870;SDS011;67067;46.850;7.578;2023-05-14T12:33:33;2.30;;;2.20;;
77870;SDS011;67067;46.850;7.578;2023-05-14T12:34:37;3.03;;;2.75;;
77870;SDS011;67067;46.850;7.578;2023-05-14T12:35:39;2.90;;;2.70;;
77870;SDS011;67067;46.850;7.578;2023-05-14T12:36:42;3.28;;;2.45;;
77870;SDS011;67067;46.850;7.578;2023-05-14T12:37:44;2.85;;;2.65;;
77870;SDS011;67067;46.850;7.578;2023-05-14T12:38:46;2.45;;;2.25;;
77870;SDS011;67067;46.850;7.578;2023-05-14T12:39:48;2.30;;;2.20;;
77870;SDS011;67067;46.850;7.578;2023-05-14T12:40:50;2.15;;;2.05;;
77870;SDS011;67067;46.850;7.578;2023-05-14T12:41:51;2.22;;;2.10;;
77870;SDS011;67067;46.850;7.578;2023-05-14T12:42:53;3.22;;;2.42;;
77870;SDS011;67067;46.850;7.578;2023-05-14T12:43:57;2.90;;;2.05;;
77870;SDS011;67067;46.850;7.578;2023-05-14T12:44:59;2.90;;;1.70;;
77870;SDS011;67067;46.850;7.578;2023-05-14T12:46:05;3.30;;;2.30;;
77870;SDS011;67067;46.850;7.578;2023-05-14T12:47:07;3.22;;;2.63;;
77870;SDS011;67067;46.850;7.578;2023-05-14T12:48:09;2.80;;;2.08;;
77870;SDS011;67067;46.850;7.578;2023-05-14T12:49:11;3.75;;;2.53;;
77870;SDS011;67067;46.850;7.578;2023-05-14T12:50:12;2.90;;;2.70;;
77870;SDS011;67067;46.850;7.578;2023-05-14T12:52:15;2.88;;;2.67;;
77870;SDS011;67067;46.850;7.578;2023-05-14T12:53:37;2.63;;;2.40;;
77870;SDS011;67067;46.850;7.578;2023-05-14T12:55:48;2.38;;;2.25;;
77870;SDS011;67067;46.850;7.578;2023-05-14T12:56:49;2.45;;;2.25;;
77870;SDS011;67067;46.850;7.578;2023-05-14T12:58:54;2.63;;;2.42;;
77870;SDS011;67067;46.850;7.578;2023-05-14T12:59:56;2.30;;;2.20;;
77870;SDS011;67067;46.850;7.578;2023-05-14T13:02:00;2.03;;;1.85;;
77870;SDS011;67067;46.850;7.578;2023-05-14T13:03:03;2.10;;;2.00;;
77870;SDS011;67067;46.850;7.578;2023-05-14T13:04:05;2.10;;;2.00;;
77870;SDS011;67067;46.850;7.578;2023-05-14T13:05:08;2.25;;;2.15;;
77870;SDS011;67067;46.850;7.578;2023-05-14T13:07:11;2.93;;;2.40;;
77870;SDS011;67067;46.850;7.578;2023-05-14T13:08:13;2.33;;;2.22;;
77870;SDS011;67067;46.850;7.578;2023-05-14T13:09:18;2.53;;;2.33;;
77870;SDS011;67067;46.850;7.578;2023-05-14T13:10:19;2.30;;;2.20;;
77870;SDS011;67067;46.850;7.578;2023-05-14T13:12:22;2.42;;;2.33;;
77870;SDS011;67067;46.850;7.578;2023-05-14T13:14:26;2.45;;;2.33;;
77870;SDS011;67067;46.850;7.578;2023-05-14T13:15:28;2.10;;;2.00;;
77870;SDS011;67067;46.850;7.578;2023-05-14T13:16:31;3.13;;;2.13;;
77870;SDS011;67067;46.850;7.578;2023-05-14T13:19:37;1.85;;;1.70;;
77870;SDS011;67067;46.850;7.578;2023-05-14T13:20:39;1.65;;;1.55;;
77870;SDS011;67067;46.850;7.578;2023-05-14T13:21:45;1.50;;;1.40;;
77870;SDS011;67067;46.850;7.578;2023-05-14T13:22:50;2.08;;;1.55;;
77870;SDS011;67067;46.850;7.578;2023-05-14T13:23:51;5.22;;;1.70;;
77870;SDS011;67067;46.850;7.578;2023-05-14T13:24:55;1.73;;;1.63;;
77870;SDS011;67067;46.850;7.578;2023-05-14T13:27:01;2.03;;;1.92;;
77870;SDS011;67067;46.850;7.578;2023-05-14T13:29:04;1.70;;;1.60;;
77870;SDS011;67067;46.850;7.578;2023-05-14T13:30:07;1.90;;;1.80;;
77870;SDS011;67067;46.850;7.578;2023-05-14T13:31:10;2.00;;;1.90;;
77870;SDS011;67067;46.850;7.578;2023-05-14T13:32:13;2.20;;;2.10;;
77870;SDS011;67067;46.850;7.578;2023-05-14T13:33:16;1.55;;;1.55;;
77870;SDS011;67067;46.850;7.578;2023-05-14T13:34:20;1.90;;;1.80;;
77870;SDS011;67067;46.850;7.578;2023-05-14T13:36:27;1.77;;;1.65;;
77870;SDS011;67067;46.850;7.578;2023-05-14T13:37:31;3.55;;;1.95;;
77870;SDS011;67067;46.850;7.578;2023-05-14T13:38:33;1.80;;;1.70;;
77870;SDS011;67067;46.850;7.578;2023-05-14T13:39:35;2.30;;;2.03;;
77870;SDS011;67067;46.850;7.578;2023-05-14T13:41:41;1.60;;;1.50;;
77870;SDS011;67067;46.850;7.578;2023-05-14T13:42:42;1.70;;;1.60;;
77870;SDS011;67067;46.850;7.578;2023-05-14T13:43:46;1.58;;;1.33;;
77870;SDS011;67067;46.850;7.578;2023-05-14T13:45:49;1.83;;;1.60;;
77870;SDS011;67067;46.850;7.578;2023-05-14T13:47:53;1.25;;;1.25;;
77870;SDS011;67067;46.850;7.578;2023-05-14T13:48:57;1.65;;;1.55;;
77870;SDS011;67067;46.850;7.578;2023-05-14T13:49:58;1.88;;;1.77;;
77870;SDS011;67067;46.850;7.578;2023-05-14T13:51:00;1.70;;;1.60;;
77870;SDS011;67067;46.850;7.578;2023-05-14T13:53:04;2.00;;;1.90;;
77870;SDS011;67067;46.850;7.578;2023-05-14T13:55:08;1.70;;;1.52;;
77870;SDS011;67067;46.850;7.578;2023-05-14T13:56:09;2.05;;;1.80;;
77870;SDS011;67067;46.850;7.578;2023-05-14T13:57:11;1.52;;;1.50;;
77870;SDS011;67067;46.850;7.578;2023-05-14T13:58:13;1.45;;;1.45;;
77870;SDS011;67067;46.850;7.578;2023-05-14T13:59:15;3.22;;;2.10;;
77870;SDS011;67067;46.850;7.578;2023-05-14T14:00:17;2.88;;;1.60;;
77870;SDS011;67067;46.850;7.578;2023-05-14T14:01:26;1.75;;;1.65;;
77870;SDS011;67067;46.850;7.578;2023-05-14T14:02:28;1.90;;;1.80;;
77870;SDS011;67067;46.850;7.578;2023-05-14T14:03:32;3.10;;;2.30;;
77870;SDS011;67067;46.850;7.578;2023-05-14T14:04:33;1.67;;;1.58;;
77870;SDS011;67067;46.850;7.578;2023-05-14T14:05:35;1.75;;;1.65;;
77870;SDS011;67067;46.850;7.578;2023-05-14T14:06:37;2.78;;;1.70;;
77870;SDS011;67067;46.850;7.578;2023-05-14T14:07:39;1.52;;;1.42;;
77870;SDS011;67067;46.850;7.578;2023-05-14T14:08:41;1.90;;;1.80;;
77870;SDS011;67067;46.850;7.578;2023-05-14T14:10:45;1.40;;;1.40;;
77870;SDS011;67067;46.850;7.578;2023-05-14T14:12:49;2.00;;;1.77;;
77870;SDS011;67067;46.850;7.578;2023-05-14T14:13:50;1.70;;;1.60;;
77870;SDS011;67067;46.850;7.578;2023-05-14T14:15:54;1.80;;;1.70;;
77870;SDS011;67067;46.850;7.578;2023-05-14T14:16:55;2.60;;;1.33;;
77870;SDS011;67067;46.850;7.578;2023-05-14T14:19:01;2.05;;;1.85;;
77870;SDS011;67067;46.850;7.578;2023-05-14T14:20:04;1.73;;;1.63;;
77870;SDS011;67067;46.850;7.578;2023-05-14T14:21:06;3.17;;;1.73;;
77870;SDS011;67067;46.850;7.578;2023-05-14T14:23:09;8.57;;;3.00;;
77870;SDS011;67067;46.850;7.578;2023-05-14T14:24:11;3.17;;;2.42;;
77870;SDS011;67067;46.850;7.578;2023-05-14T14:26:14;1.77;;;1.67;;
77870;SDS011;67067;46.850;7.578;2023-05-14T14:27:16;2.58;;;1.98;;
77870;SDS011;67067;46.850;7.578;2023-05-14T14:28:18;2.65;;;1.67;;
77870;SDS011;67067;46.850;7.578;2023-05-14T14:29:22;1.83;;;1.73;;
77870;SDS011;67067;46.850;7.578;2023-05-14T14:31:25;1.73;;;1.63;;
77870;SDS011;67067;46.850;7.578;2023-05-14T14:32:27;2.30;;;1.98;;
77870;SDS011;67067;46.850;7.578;2023-05-14T14:33:31;2.13;;;2.00;;
77870;SDS011;67067;46.850;7.578;2023-05-14T14:34:33;3.25;;;1.90;;
77870;SDS011;67067;46.850;7.578;2023-05-14T14:36:37;4.07;;;1.98;;
77870;SDS011;67067;46.850;7.578;2023-05-14T14:37:39;2.60;;;2.15;;
77870;SDS011;67067;46.850;7.578;2023-05-14T14:38:45;2.00;;;1.90;;
77870;SDS011;67067;46.850;7.578;2023-05-14T14:39:47;2.85;;;2.30;;
77870;SDS011;67067;46.850;7.578;2023-05-14T14:41:50;3.63;;;2.95;;
77870;SDS011;67067;46.850;7.578;2023-05-14T14:42:52;5.05;;;3.22;;
77870;SDS011;67067;46.850;7.578;2023-05-14T14:43:56;3.60;;;2.90;;
77870;SDS011;67067;46.850;7.578;2023-05-14T14:44:58;6.15;;;4.15;;
77870;SDS011;67067;46.850;7.578;2023-05-14T14:46:03;4.13;;;3.63;;
77870;SDS011;67067;46.850;7.578;2023-05-14T14:47:05;4.78;;;3.05;;
77870;SDS011;67067;46.850;7.578;2023-05-14T14:49:27;4.20;;;2.47;;
77870;SDS011;67067;46.850;7.578;2023-05-14T14:51:30;3.50;;;2.35;;
77870;SDS011;67067;46.850;7.578;2023-05-14T14:52:33;2.90;;;2.70;;
77870;SDS011;67067;46.850;7.578;2023-05-14T14:53:35;2.05;;;1.95;;
77870;SDS011;67067;46.850;7.578;2023-05-14T14:55:39;2.40;;;2.20;;
77870;SDS011;67067;46.850;7.578;2023-05-14T14:56:41;3.40;;;2.20;;
77870;SDS011;67067;46.850;7.578;2023-05-14T14:57:46;2.20;;;2.10;;
77870;SDS011;67067;46.850;7.578;2023-05-14T14:58:50;1.48;;;1.48;;
77870;SDS011;67067;46.850;7.578;2023-05-14T14:59:54;1.90;;;1.80;;
77870;SDS011;67067;46.850;7.578;2023-05-14T15:01:59;1.42;;;1.40;;
77870;SDS011;67067;46.850;7.578;2023-05-14T15:05:05;1.48;;;1.38;;
77870;SDS011;67067;46.850;7.578;2023-05-14T15:06:07;1.42;;;1.33;;
77870;SDS011;67067;46.850;7.578;2023-05-14T15:07:09;1.48;;;1.48;;
77870;SDS011;67067;46.850;7.578;2023-05-14T15:09:12;1.80;;;1.70;;
77870;SDS011;67067;46.850;7.578;2023-05-14T15:10:16;1.75;;;1.65;;
77870;SDS011;67067;46.850;7.578;2023-05-14T15:11:17;1.70;;;1.60;;
77870;SDS011;67067;46.850;7.578;2023-05-14T15:13:24;2.35;;;1.30;;
77870;SDS011;67067;46.850;7.578;2023-05-14T15:14:30;1.83;;;1.73;;
77870;SDS011;67067;46.850;7.578;2023-05-14T15:15:34;2.03;;;1.40;;
77870;SDS011;67067;46.850;7.578;2023-05-14T15:16:38;1.85;;;1.75;;
77870;SDS011;67067;46.850;7.578;2023-05-14T15:17:40;1.67;;;1.58;;
77870;SDS011;67067;46.850;7.578;2023-05-14T15:18:44;4.43;;;1.80;;
77870;SDS011;67067;46.850;7.578;2023-05-14T15:19:46;1.95;;;1.85;;
77870;SDS011;67067;46.850;7.578;2023-05-14T15:20:47;1.77;;;1.67;;
77870;SDS011;67067;46.850;7.578;2023-05-14T15:21:49;2.15;;;2.00;;
77870;SDS011;67067;46.850;7.578;2023-05-14T15:23:54;1.42;;;1.38;;
77870;SDS011;67067;46.850;7.578;2023-05-14T15:25:58;1.80;;;1.67;;
77870;SDS011;67067;46.850;7.578;2023-05-14T15:27:02;1.70;;;1.60;;
77870;SDS011;67067;46.850;7.578;2023-05-14T15:28:04;1.45;;;1.35;;
77870;SDS011;67067;46.850;7.578;2023-05-14T15:29:09;3.55;;;2.15;;
77870;SDS011;67067;46.850;7.578;2023-05-14T15:30:11;5.40;;;3.15;;
77870;SDS011;67067;46.850;7.578;2023-05-14T15:31:13;5.70;;;2.90;;
77870;SDS011;67067;46.850;7.578;2023-05-14T15:32:18;1.70;;;1.60;;
77870;SDS011;67067;46.850;7.578;2023-05-14T15:33:19;1.90;;;1.80;;
77870;SDS011;67067;46.850;7.578;2023-05-14T15:34:21;2.75;;;1.60;;
77870;SDS011;67067;46.850;7.578;2023-05-14T15:35:23;3.05;;;1.30;;
77870;SDS011;67067;46.850;7.578;2023-05-14T15:36:27;1.45;;;1.40;;
77870;SDS011;67067;46.850;7.578;2023-05-14T15:37:39;1.42;;;1.30;;
77870;SDS011;67067;46.850;7.578;2023-05-14T15:38:42;2.20;;;1.42;;
77870;SDS011;67067;46.850;7.578;2023-05-14T15:40:45;1.30;;;1.30;;
77870;SDS011;67067;46.850;7.578;2023-05-14T15:42:48;2.05;;;1.90;;
77870;SDS011;67067;46.850;7.578;2023-05-14T15:44:52;2.08;;;1.98;;
77870;SDS011;67067;46.850;7.578;2023-05-14T15:46:55;1.55;;;1.55;;
77870;SDS011;67067;46.850;7.578;2023-05-14T15:48:58;2.70;;;1.90;;
77870;SDS011;67067;46.850;7.578;2023-05-14T15:51:04;3.33;;;1.60;;
77870;SDS011;67067;46.850;7.578;2023-05-14T15:52:06;3.13;;;2.03;;
77870;SDS011;67067;46.850;7.578;2023-05-14T15:54:09;1.48;;;1.45;;
77870;SDS011;67067;46.850;7.578;2023-05-14T15:55:11;1.63;;;1.25;;
77870;SDS011;67067;46.850;7.578;2023-05-14T15:57:14;2.22;;;1.67;;
77870;SDS011;67067;46.850;7.578;2023-05-14T15:58:20;1.75;;;1.65;;
77870;SDS011;67067;46.850;7.578;2023-05-14T15:59:21;1.50;;;1.40;;
77870;SDS011;67067;46.850;7.578;2023-05-14T16:00:24;2.72;;;1.85;;
77870;SDS011;67067;46.850;7.578;2023-05-14T16:01:26;2.20;;;2.00;;
77870;SDS011;67067;46.850;7.578;2023-05-14T16:03:30;2.58;;;1.95;;
77870;SDS011;67067;46.850;7.578;2023-05-14T16:04:35;2.03;;;1.92;;
77870;SDS011;67067;46.850;7.578;2023-05-14T16:05:37;2.75;;;2.55;;
77870;SDS011;67067;46.850;7.578;2023-05-14T16:06:40;1.80;;;1.70;;
77870;SDS011;67067;46.850;7.578;2023-05-14T16:07:42;3.53;;;2.08;;
77870;SDS011;67067;46.850;7.578;2023-05-14T16:09:46;2.35;;;2.15;;
77870;SDS011;67067;46.850;7.578;2023-05-14T16:11:49;1.92;;;1.83;;
77870;SDS011;67067;46.850;7.578;2023-05-14T16:12:53;3.15;;;1.88;;
77870;SDS011;67067;46.850;7.578;2023-05-14T16:15:01;2.63;;;2.20;;
77870;SDS011;67067;46.850;7.578;2023-05-14T16:16:08;3.00;;;2.58;;